createdAt,value
2022-11-23T00:02:42.907Z,46.93
2022-11-23T00:07:46.013Z,46.94
2022-11-23T00:12:50.240Z,47.02
2022-11-23T00:17:53.074Z,47.02
2022-11-23T00:22:56.258Z,46.99
2022-11-23T00:28:00.353Z,47.04
2022-11-23T00:33:03.137Z,46.91
2022-11-23T00:38:07.152Z,47.14
2022-11-23T00:43:11.303Z,46.88
2022-11-23T00:48:14.214Z,47.11
2022-11-23T00:53:17.045Z,47.01
2022-11-23T00:58:21.295Z,47.33
2022-11-23T01:03:24.302Z,47.19
2022-11-23T01:08:27.537Z,47.44
2022-11-23T01:13:31.744Z,47.58
2022-11-23T01:18:34.699Z,47.54
2022-11-23T01:23:37.652Z,47.69
2022-11-23T01:28:42.192Z,47.64
2022-11-23T01:33:44.993Z,47.61
2022-11-23T01:38:48.543Z,47.76
2022-11-23T01:43:52.694Z,47.83
2022-11-23T01:48:57.192Z,47.86
2022-11-23T01:54:02.074Z,47.94
2022-11-23T01:59:08.497Z,48.00
2022-11-23T02:04:14.092Z,47.97
2022-11-23T02:09:20.782Z,48.08
2022-11-23T02:14:24.964Z,48.04
2022-11-23T02:19:33.917Z,47.98
2022-11-23T02:24:38.308Z,48.17
2022-11-23T02:29:42.409Z,48.40
2022-11-23T02:34:45.187Z,48.39
2022-11-23T02:39:49.265Z,48.21
2022-11-23T02:44:56.553Z,48.31
2022-11-23T02:49:59.362Z,48.34
2022-11-23T02:55:02.205Z,48.39
2022-11-23T03:00:08.892Z,48.46
2022-11-23T03:05:12.096Z,48.29
2022-11-23T03:10:15.114Z,48.52
2022-11-23T03:15:21.661Z,48.43
2022-11-23T03:20:25.352Z,48.56
2022-11-23T03:25:29.274Z,48.58
2022-11-23T03:30:35.659Z,48.67
2022-11-23T03:35:40.878Z,48.61
2022-11-23T03:41:09.837Z,48.54
2022-11-23T03:46:26.529Z,48.72
2022-11-23T03:51:29.381Z,48.63
2022-11-23T03:56:32.655Z,48.75
2022-11-23T04:01:37.107Z,48.77
2022-11-23T04:06:43.666Z,48.81
2022-11-23T04:11:53.714Z,48.65
2022-11-23T04:16:57.887Z,48.74
2022-11-23T04:22:01.052Z,48.95
2022-11-23T04:27:08.970Z,48.99
2022-11-23T04:32:14.475Z,48.91
2022-11-23T04:37:17.518Z,48.64
2022-11-23T04:42:20.819Z,48.65
2022-11-23T04:47:36.902Z,48.73
2022-11-23T04:52:44.892Z,48.77
2022-11-23T04:57:53.372Z,48.66
2022-11-23T05:03:00.107Z,48.73
2022-11-23T05:08:05.893Z,48.51
2022-11-23T05:13:21.277Z,48.59
2022-11-23T05:18:26.637Z,48.54
2022-11-23T05:23:29.882Z,48.46
2022-11-23T05:28:41.892Z,48.71
2022-11-23T05:33:50.235Z,48.71
2022-11-23T05:39:00.402Z,48.42
2022-11-23T05:44:07.636Z,48.57
2022-11-23T05:49:12.440Z,48.67
2022-11-23T05:54:16.207Z,48.56
2022-11-23T05:59:26.495Z,48.58
2022-11-23T06:04:36.516Z,48.51
2022-11-23T06:09:41.949Z,48.37
2022-11-23T06:14:47.495Z,48.39
2022-11-23T06:19:54.597Z,48.41
2022-11-23T06:24:58.912Z,48.50
2022-11-23T06:30:15.838Z,48.69
2022-11-23T06:35:20.587Z,48.63
2022-11-23T06:40:23.980Z,48.63
2022-11-23T06:45:28.214Z,48.67
2022-11-23T06:50:36.045Z,48.68
2022-11-23T06:55:39.953Z,48.45
2022-11-23T07:00:44.205Z,48.06
2022-11-23T07:05:49.276Z,48.08
2022-11-23T07:10:53.690Z,48.15
2022-11-23T07:15:58.028Z,48.02
2022-11-23T07:21:02.330Z,48.22
2022-11-23T07:26:05.293Z,48.33
2022-11-23T07:31:08.217Z,48.29
2022-11-23T07:36:12.577Z,48.40
2022-11-23T07:41:17.464Z,48.46
2022-11-23T07:46:46.491Z,48.29
2022-11-23T07:51:50.609Z,48.30
2022-11-23T07:56:53.351Z,48.14
2022-11-23T08:01:58.582Z,48.28
2022-11-23T08:07:03.958Z,48.38
2022-11-23T08:12:07.517Z,48.42
2022-11-23T08:17:10.835Z,48.40
2022-11-23T08:22:15.987Z,48.65
2022-11-23T08:27:18.929Z,48.70
2022-11-23T08:32:21.680Z,48.54
2022-11-23T08:37:25.831Z,48.70
2022-11-23T08:42:28.578Z,48.93
2022-11-23T08:47:32.428Z,49.07
2022-11-23T08:52:36.667Z,48.88
2022-11-23T08:57:39.471Z,48.98
2022-11-23T09:02:42.241Z,49.28
2022-11-23T09:07:46.441Z,49.07
2022-11-23T09:12:49.401Z,49.18
2022-11-23T09:17:52.164Z,49.39
2022-11-23T09:22:56.481Z,49.41
2022-11-23T09:27:59.723Z,49.24
2022-11-23T09:33:02.485Z,49.45
2022-11-23T09:38:06.787Z,49.26
2022-11-23T09:43:18.317Z,49.25
2022-11-23T09:48:35.787Z,49.16
2022-11-23T09:53:41.357Z,49.18
2022-11-23T09:58:44.191Z,49.29
2022-11-23T10:03:49.189Z,49.38
2022-11-23T10:09:00.875Z,49.32
2022-11-23T10:14:09.675Z,49.07
2022-11-23T10:19:15.057Z,49.15
2022-11-23T10:24:20.687Z,49.26
2022-11-23T10:29:27.993Z,49.40
2022-11-23T10:34:47.430Z,49.55
2022-11-23T10:39:51.551Z,49.05
2022-11-23T10:44:54.376Z,49.21
2022-11-23T10:49:58.494Z,38.97
2022-11-23T10:55:03.445Z,38.10
2022-11-23T11:00:15.216Z,37.85
2022-11-23T11:06:06.854Z,40.74
2022-11-23T11:11:00.320Z,41.57
2022-11-23T11:16:03.867Z,42.19
2022-11-23T11:21:07.823Z,42.07
2022-11-23T11:26:19.711Z,42.83
2022-11-23T11:31:45.109Z,43.23
2022-11-23T11:36:51.396Z,43.80
2022-11-23T11:41:55.555Z,43.78
2022-11-23T11:47:00.625Z,44.11
2022-11-23T11:52:06.549Z,44.51
2022-11-23T11:57:17.029Z,45.04
2022-11-23T12:02:23.104Z,45.18
2022-11-23T12:07:29.529Z,45.94
2022-11-23T12:12:37.758Z,46.27
2022-11-23T12:17:55.565Z,46.49
2022-11-23T12:23:06.090Z,46.84
2022-11-23T12:28:28.847Z,46.97
2022-11-23T12:39:03.712Z,46.87
2022-11-23T12:44:40.296Z,46.66
2022-11-23T12:49:45.341Z,46.91
2022-11-23T12:54:54.175Z,47.05
2022-11-23T13:00:02.464Z,47.08
2022-11-23T13:05:31.840Z,47.07
2022-11-23T13:10:51.857Z,47.21
2022-11-23T13:16:32.590Z,47.01
2022-11-23T13:21:39.870Z,47.11
2022-11-23T13:26:43.044Z,47.37
2022-11-23T13:31:47.467Z,47.62
2022-11-23T13:37:15.536Z,47.69
2022-11-23T13:42:18.403Z,47.52
2022-11-23T13:47:22.594Z,47.60
2022-11-23T13:52:27.627Z,48.05
2022-11-23T13:57:30.448Z,47.97
2022-11-23T14:02:34.770Z,48.22
2022-11-23T14:07:41.408Z,48.38
2022-11-23T14:12:47.893Z,48.75
2022-11-23T14:18:10.652Z,49.70
2022-11-23T14:23:44.137Z,49.72
2022-11-23T14:28:53.799Z,50.08
2022-11-23T14:34:02.144Z,50.33
2022-11-23T14:39:30.959Z,50.28
2022-11-23T14:44:38.390Z,50.53
2022-11-23T14:49:51.292Z,50.58
2022-11-23T14:54:54.983Z,51.11
2022-11-23T14:59:59.107Z,51.35
2022-11-23T15:05:06.634Z,51.29
2022-11-23T15:10:13.315Z,51.42
2022-11-23T15:15:19.296Z,51.60
2022-11-23T15:20:23.511Z,51.53
2022-11-23T15:25:27.687Z,51.62
2022-11-23T15:30:31.378Z,52.07
2022-11-23T15:35:36.849Z,52.12
2022-11-23T15:40:40.388Z,51.99
2022-11-23T15:46:02.153Z,51.98
2022-11-23T15:51:08.348Z,52.20
2022-11-23T15:56:15.184Z,52.30
2022-11-23T16:01:18.035Z,52.47
2022-11-23T16:06:29.619Z,52.91
2022-11-23T16:11:33.960Z,52.84
2022-11-23T16:16:40.276Z,52.54
2022-11-23T16:21:46.951Z,52.31
2022-11-23T16:26:49.758Z,51.98
2022-11-23T16:31:57.385Z,51.49
2022-11-23T16:37:03.850Z,51.11
2022-11-23T16:42:06.789Z,51.05
2022-11-23T16:47:23.767Z,50.57
2022-11-23T16:52:29.262Z,50.67
2022-11-23T16:57:33.034Z,51.42
2022-11-23T17:02:35.948Z,51.13
2022-11-23T17:07:40.381Z,50.80
2022-11-23T17:12:47.927Z,50.92
2022-11-23T17:17:50.757Z,50.61
2022-11-23T17:23:00.361Z,50.67
2022-11-23T17:28:03.725Z,50.48
2022-11-23T17:33:06.605Z,50.27
2022-11-23T17:38:14.158Z,50.34
2022-11-23T17:43:16.964Z,49.96
2022-11-23T17:48:20.486Z,49.80
2022-11-23T17:53:25.687Z,49.74
2022-11-23T17:58:28.543Z,49.71
2022-11-23T18:03:31.473Z,49.65
2022-11-23T18:08:35.744Z,49.39
2022-11-23T18:13:38.820Z,48.90
2022-11-23T18:18:41.695Z,49.09
2022-11-23T18:23:45.943Z,48.78
2022-11-23T18:28:48.871Z,48.92
2022-11-23T18:33:51.716Z,48.96
2022-11-23T18:38:56.904Z,48.64
2022-11-23T18:43:59.704Z,48.56
2022-11-23T18:49:02.520Z,48.69
2022-11-23T18:54:06.978Z,48.60
2022-11-23T18:59:15.587Z,48.60
2022-11-23T19:04:34.259Z,48.41
2022-11-23T19:09:38.467Z,48.55
2022-11-23T19:14:41.504Z,48.38
2022-11-23T19:19:44.436Z,48.44
2022-11-23T19:24:49.070Z,48.38
2022-11-23T19:29:51.939Z,48.10
2022-11-23T19:34:55.344Z,48.04
2022-11-23T19:39:59.508Z,47.94
2022-11-23T19:45:02.405Z,47.63
2022-11-23T19:50:06.286Z,47.65
2022-11-23T19:55:10.721Z,47.49
2022-11-23T20:00:14.181Z,47.36
2022-11-23T20:05:17.486Z,47.14
2022-11-23T20:10:21.731Z,47.05
2022-11-23T20:15:24.614Z,47.06
2022-11-23T20:20:27.927Z,46.92
2022-11-23T20:25:32.167Z,46.90
2022-11-23T20:30:35.283Z,46.76
2022-11-23T20:35:38.604Z,46.71
2022-11-23T20:40:42.769Z,46.69
2022-11-23T20:45:45.550Z,46.47
2022-11-23T20:50:48.376Z,46.39
2022-11-23T20:55:52.881Z,46.31
2022-11-23T21:00:55.803Z,46.34
2022-11-23T21:05:58.861Z,46.34
2022-11-23T21:11:27.262Z,46.22
2022-11-23T21:16:30.136Z,45.94
2022-11-23T21:21:33.488Z,46.10
2022-11-23T21:26:37.868Z,46.09
2022-11-23T21:31:41.801Z,46.24
2022-11-23T21:36:44.672Z,46.39
2022-11-23T21:41:50.539Z,46.49
2022-11-23T21:46:53.798Z,46.45
2022-11-23T21:51:56.854Z,46.33
2022-11-23T21:57:01.156Z,46.68
2022-11-23T22:02:04.151Z,46.69
2022-11-23T22:07:07.300Z,46.46
2022-11-23T22:12:11.656Z,46.61
2022-11-23T22:17:14.565Z,46.46
2022-11-23T22:22:17.479Z,46.64
2022-11-23T22:27:21.794Z,46.73
2022-11-23T22:32:24.672Z,46.71
2022-11-23T22:37:27.576Z,46.76
2022-11-23T22:42:31.805Z,47.04
2022-11-23T22:47:34.699Z,46.79
2022-11-23T22:52:37.938Z,46.75
2022-11-23T22:57:42.221Z,46.92
2022-11-23T23:02:45.850Z,46.91
2022-11-23T23:07:48.956Z,46.86
2022-11-23T23:12:54.052Z,46.97
2022-11-23T23:17:56.901Z,46.96
2022-11-23T23:22:59.735Z,46.99
2022-11-23T23:28:04.411Z,47.19
2022-11-23T23:33:07.602Z,47.21
2022-11-23T23:38:10.448Z,47.28
2022-11-23T23:43:14.849Z,47.14
2022-11-23T23:48:17.666Z,47.30
2022-11-23T23:53:20.594Z,47.38
2022-11-23T23:58:24.826Z,47.22
